< < Back
Terminal Aerodrome Forecast


Current Version              Previous Versions:   1  2  3  4  5  6  7  8  9  

Terminal Aerodrome Forecast

349
FTUS44 KMRX 231123
TAFCHA
TAF
KCHA 231123Z 2312/2412 00000KT P6SM FEW080 BKN200
     FM231800 22005KT P6SM VCTS BKN050CB
     FM232200 VRB03KT P6SM SCT050 BKN250=

Latest METAR

227
SAUS80 KWBC 231900
MTRCHA
METAR KCHA 231853Z 26010KT 10SM SCT043 SCT050 BKN060 BKN170 BKN250 31/21
A2999 RMK AO2 LTG DSNT ALQDS SLP146 T03110211 $


USA.gov is the U.S. government's official web portal to all federal, state and local government web resources and services.